createdAt,value
2022-10-13T00:01:11.725Z,0.07
2022-10-13T00:05:09.227Z,0.07
2022-10-13T00:09:09.650Z,0.07
2022-10-13T00:13:09.653Z,0.07
2022-10-13T00:17:09.630Z,0.07
2022-10-13T00:21:09.724Z,0.07
2022-10-13T00:25:09.205Z,0.07
2022-10-13T00:29:15.534Z,0.07
2022-10-13T00:33:09.284Z,0.07
2022-10-13T00:37:09.289Z,0.07
2022-10-13T00:41:09.031Z,0.08
2022-10-13T00:45:09.663Z,0.08
2022-10-13T00:49:08.983Z,0.08
2022-10-13T00:53:09.466Z,0.08
2022-10-13T00:57:08.843Z,0.08
2022-10-13T01:01:13.941Z,0.08
2022-10-13T01:05:09.113Z,0.08
2022-10-13T01:09:09.595Z,0.08
2022-10-13T01:13:09.481Z,0.08
2022-10-13T01:17:08.871Z,0.08
2022-10-13T01:21:09.394Z,0.08
2022-10-13T01:25:08.814Z,0.08
2022-10-13T01:29:09.666Z,0.08
2022-10-13T01:33:09.505Z,0.08
2022-10-13T01:37:09.481Z,0.08
2022-10-13T01:41:10.682Z,0.08
2022-10-13T01:45:09.714Z,0.08
2022-10-13T01:49:09.115Z,0.08
2022-10-13T01:53:09.668Z,0.08
2022-10-13T01:57:09.370Z,0.08
2022-10-13T02:01:12.417Z,0.08
2022-10-13T02:05:09.375Z,0.08
2022-10-13T02:09:09.415Z,0.08
2022-10-13T02:13:09.629Z,0.08
2022-10-13T02:17:08.770Z,0.08
2022-10-13T02:21:09.190Z,0.08
2022-10-13T02:25:08.846Z,0.08
2022-10-13T02:29:09.878Z,0.08
2022-10-13T02:33:09.172Z,0.08
2022-10-13T02:37:09.493Z,0.08
2022-10-13T02:41:08.761Z,0.08
2022-10-13T02:45:08.854Z,0.08
2022-10-13T02:49:09.347Z,0.08
2022-10-13T02:53:09.596Z,0.08
2022-10-13T02:57:08.844Z,0.08
2022-10-13T03:01:12.087Z,0.08
2022-10-13T03:05:08.858Z,0.08
2022-10-13T03:09:09.087Z,0.08
2022-10-13T03:13:09.463Z,0.08
2022-10-13T03:17:13.259Z,0.08
2022-10-13T03:21:09.183Z,0.08
2022-10-13T03:25:09.243Z,0.08
2022-10-13T03:29:09.141Z,0.08
2022-10-13T03:33:09.173Z,0.08
2022-10-13T03:37:09.565Z,0.08
2022-10-13T03:41:08.857Z,0.08
2022-10-13T03:45:09.363Z,0.08
2022-10-13T03:49:09.157Z,0.08
2022-10-13T03:53:09.266Z,0.08
2022-10-13T03:57:08.797Z,0.08
2022-10-13T04:01:12.451Z,0.08
2022-10-13T04:05:08.687Z,0.08
2022-10-13T04:09:08.861Z,0.08
2022-10-13T04:13:15.981Z,0.08
2022-10-13T04:17:09.345Z,0.08
2022-10-13T04:21:09.733Z,0.08
2022-10-13T04:25:08.764Z,0.08
2022-10-13T04:29:09.522Z,0.08
2022-10-13T04:33:08.878Z,0.08
2022-10-13T04:37:09.116Z,0.08
2022-10-13T04:41:09.339Z,0.08
2022-10-13T04:45:08.694Z,0.08
2022-10-13T04:49:08.816Z,0.08
2022-10-13T04:53:09.494Z,0.08
2022-10-13T04:57:09.299Z,0.08
2022-10-13T05:01:15.394Z,0.08
2022-10-13T05:05:09.354Z,0.08
2022-10-13T05:09:09.588Z,0.08
2022-10-13T05:13:09.278Z,0.08
2022-10-13T05:17:09.360Z,0.08
2022-10-13T05:21:09.508Z,0.08
2022-10-13T05:25:09.695Z,0.08
2022-10-13T05:29:10.227Z,0.08
2022-10-13T05:33:16.224Z,0.08
2022-10-13T05:37:08.679Z,0.08
2022-10-13T05:41:09.075Z,0.08
2022-10-13T05:45:09.671Z,0.08
2022-10-13T05:49:08.766Z,0.08
2022-10-13T05:53:08.896Z,0.08
2022-10-13T05:57:09.260Z,0.08
2022-10-13T06:01:08.926Z,0.08
2022-10-13T06:05:08.793Z,0.08
2022-10-13T06:09:08.870Z,0.08
2022-10-13T06:13:09.300Z,0.08
2022-10-13T06:17:09.496Z,0.08
2022-10-13T06:21:09.330Z,0.08
2022-10-13T06:25:08.887Z,0.08
2022-10-13T06:29:13.741Z,0.08
2022-10-13T06:33:09.600Z,0.08
2022-10-13T06:37:09.672Z,0.08
2022-10-13T06:41:09.772Z,0.08
2022-10-13T06:45:08.831Z,0.08
2022-10-13T06:49:09.538Z,0.08
2022-10-13T06:53:08.998Z,0.08
2022-10-13T06:57:09.602Z,0.08
2022-10-13T07:01:12.225Z,0.08
2022-10-13T07:05:09.196Z,0.08
2022-10-13T07:09:09.695Z,0.08
2022-10-13T07:13:08.832Z,0.08
2022-10-13T07:17:09.531Z,0.08
2022-10-13T07:21:14.771Z,0.08
2022-10-13T07:25:08.919Z,0.08
2022-10-13T07:29:09.734Z,0.08
2022-10-13T07:33:09.755Z,0.08
2022-10-13T07:37:08.701Z,0.08
2022-10-13T07:41:09.046Z,0.08
2022-10-13T07:45:08.999Z,0.08
2022-10-13T07:49:11.181Z,0.3
2022-10-13T07:53:08.972Z,0.24
2022-10-13T07:57:08.845Z,0.24
2022-10-13T08:01:11.890Z,0.24
2022-10-13T08:05:08.916Z,0.24
2022-10-13T08:09:08.797Z,0.24
2022-10-13T08:13:09.869Z,0.24
2022-10-13T08:17:13.921Z,0.24
2022-10-13T08:22:09.947Z,0.24
2022-10-13T08:25:09.014Z,0.24
2022-10-13T08:29:34.165Z,0.24
2022-10-13T08:33:09.145Z,0.24
2022-10-13T08:37:09.645Z,0.24
2022-10-13T08:41:09.555Z,0.24
2022-10-13T08:46:37.722Z,0.24
2022-10-13T08:49:09.410Z,0.24
2022-10-13T08:53:08.956Z,0.24
2022-10-13T08:57:09.034Z,13.53
2022-10-13T09:01:11.391Z,13.53
2022-10-13T09:05:08.852Z,3.72
2022-10-13T09:09:09.362Z,2.18
2022-10-13T09:13:09.650Z,2.18
2022-10-13T09:17:09.186Z,1.66
2022-10-13T09:21:09.532Z,1.66
2022-10-13T09:25:09.213Z,1.66
2022-10-13T09:29:10.042Z,1.66
2022-10-13T09:33:09.488Z,1.66
2022-10-13T09:37:08.796Z,1.66
2022-10-13T09:41:09.371Z,1.66
2022-10-13T09:45:12.808Z,1.66
2022-10-13T09:49:09.417Z,1.66
2022-10-13T09:53:09.275Z,1.66
2022-10-13T09:57:08.854Z,1.66
2022-10-13T10:01:12.174Z,1.66
2022-10-13T10:05:09.578Z,1.66
2022-10-13T10:09:36.760Z,1.66
2022-10-13T10:13:12.965Z,1.66
2022-10-13T10:17:09.380Z,1.66
2022-10-13T10:21:09.421Z,7.81
2022-10-13T10:25:09.138Z,7.81
2022-10-13T10:29:09.662Z,0.03
2022-10-13T10:33:09.449Z,0.02
2022-10-13T10:37:09.707Z,0.02
2022-10-13T10:41:09.078Z,0.02
2022-10-13T10:45:09.085Z,0.02
2022-10-13T10:49:09.319Z,0.02
2022-10-13T10:53:09.047Z,0.02
2022-10-13T10:57:09.419Z,0.02
2022-10-13T11:01:12.718Z,0.02
2022-10-13T11:05:16.751Z,0.02
2022-10-13T11:09:09.123Z,0.02
2022-10-13T11:13:09.901Z,0.02
2022-10-13T11:17:09.935Z,0.02
2022-10-13T11:21:09.995Z,0.02
2022-10-13T11:25:10.038Z,0.02
2022-10-13T11:29:09.866Z,0.02
2022-10-13T11:33:08.943Z,0.02
2022-10-13T11:37:08.764Z,0.02
2022-10-13T11:41:08.761Z,0.02
2022-10-13T11:45:09.603Z,0.06
2022-10-13T11:49:09.227Z,0.06
2022-10-13T11:53:09.078Z,0.06
2022-10-13T11:57:13.446Z,0.06
2022-10-13T12:01:16.258Z,0.06
2022-10-13T12:05:09.414Z,0.06
2022-10-13T12:09:09.434Z,0.06
2022-10-13T12:13:09.229Z,0.06
2022-10-13T12:17:12.245Z,0.06
2022-10-13T12:21:09.270Z,0.06
2022-10-13T12:25:09.566Z,0.06
2022-10-13T12:29:09.809Z,0.06
2022-10-13T12:33:09.724Z,0.06
2022-10-13T12:37:09.153Z,0.06
2022-10-13T12:41:09.199Z,0.06
2022-10-13T12:45:14.237Z,0.06
2022-10-13T12:49:09.582Z,0.06
2022-10-13T12:53:09.244Z,0.06
2022-10-13T12:57:08.877Z,0.06
2022-10-13T13:01:11.989Z,0.06
2022-10-13T13:05:08.782Z,0.06
2022-10-13T13:09:09.041Z,0.06
2022-10-13T13:13:08.978Z,0.06
2022-10-13T13:17:11.247Z,0.06
2022-10-13T13:21:09.051Z,0.06
2022-10-13T13:25:35.916Z,0.06
2022-10-13T13:29:09.506Z,0.06
2022-10-13T13:33:09.410Z,0.06
2022-10-13T13:37:09.529Z,0.06
2022-10-13T13:41:15.339Z,0.06
2022-10-13T13:45:08.900Z,0.06
2022-10-13T13:49:09.176Z,0.06
2022-10-13T13:53:08.893Z,0.13
2022-10-13T13:57:10.325Z,0.13
2022-10-13T14:01:13.554Z,0.03
2022-10-13T14:05:09.364Z,1.97
2022-10-13T14:09:09.681Z,1.97
2022-10-13T14:13:08.916Z,0.02
2022-10-13T14:17:08.878Z,0.01
2022-10-13T14:21:09.795Z,0.01
2022-10-13T14:25:09.388Z,0.01
2022-10-13T14:29:14.844Z,1.15
2022-10-13T14:33:09.433Z,1.15
2022-10-13T14:37:09.196Z,0.01
2022-10-13T14:41:09.449Z,1.08
2022-10-13T14:45:09.017Z,1.08
2022-10-13T14:49:09.934Z,1.01
2022-10-13T14:53:09.570Z,0.97
2022-10-13T14:57:08.784Z,0.97
2022-10-13T15:01:11.852Z,0.01
2022-10-13T15:05:09.680Z,0.01
2022-10-13T15:13:09.219Z,0.01
2022-10-13T15:17:08.928Z,0.89
2022-10-13T15:21:09.268Z,0.89
2022-10-13T15:25:08.857Z,0.88
2022-10-13T15:29:09.600Z,0.87
2022-10-13T15:33:10.081Z,0.87
2022-10-13T15:37:09.194Z,0.01
2022-10-13T15:41:09.299Z,0.86
2022-10-13T15:45:42.949Z,0.86
2022-10-13T15:49:09.519Z,0.83
2022-10-13T15:53:10.328Z,0.82
2022-10-13T15:57:09.489Z,0.82
2022-10-13T16:01:12.157Z,0.82
2022-10-13T16:05:11.515Z,0.01
2022-10-13T16:09:09.146Z,0.01
2022-10-13T16:13:12.347Z,0.79
2022-10-13T16:17:09.847Z,0.01
2022-10-13T16:21:08.888Z,0.01
2022-10-13T16:25:09.314Z,0.01
2022-10-13T16:29:09.532Z,0.77
2022-10-13T16:33:09.153Z,0.77
2022-10-13T16:37:09.547Z,0.01
2022-10-13T16:41:09.140Z,0.01
2022-10-13T16:45:09.391Z,0.01
2022-10-13T16:49:09.513Z,0.01
2022-10-13T16:53:09.668Z,0.01
2022-10-13T16:57:09.678Z,0.01
2022-10-13T17:01:14.680Z,0.01
2022-10-13T17:05:12.815Z,0.01
2022-10-13T17:09:09.513Z,0.01
2022-10-13T17:13:09.413Z,0.01
2022-10-13T17:17:09.626Z,0.01
2022-10-13T17:21:09.645Z,0.01
2022-10-13T17:25:09.992Z,0.01
2022-10-13T17:29:09.646Z,0.01
2022-10-13T17:33:15.615Z,0.01
2022-10-13T17:37:08.870Z,0.01
2022-10-13T17:41:11.144Z,0.01
2022-10-13T17:45:09.675Z,0.01
2022-10-13T17:49:11.258Z,0.01
2022-10-13T17:53:08.946Z,0.01
2022-10-13T17:57:09.405Z,0.01
2022-10-13T18:01:45.644Z,0.01
2022-10-13T18:05:09.366Z,0.01
2022-10-13T18:09:09.729Z,0.01
2022-10-13T18:13:09.428Z,0.01
2022-10-13T18:17:09.560Z,0.01
2022-10-13T18:21:09.433Z,0.01
2022-10-13T18:25:08.982Z,0.01
2022-10-13T18:29:10.204Z,0.01
2022-10-13T18:33:09.366Z,0.01
2022-10-13T18:37:09.199Z,0.01
2022-10-13T18:41:09.129Z,0.01
2022-10-13T18:45:09.408Z,0.01
2022-10-13T18:49:09.368Z,0.01
2022-10-13T18:53:09.645Z,0.01
2022-10-13T18:57:09.729Z,0.01
2022-10-13T19:01:12.184Z,0.01
2022-10-13T19:05:09.523Z,0.01
2022-10-13T19:09:08.828Z,0.01
2022-10-13T19:13:09.297Z,0.01
2022-10-13T19:17:13.713Z,0.01
2022-10-13T19:21:09.451Z,0.01
2022-10-13T19:25:08.898Z,0.01
2022-10-13T19:29:09.751Z,0.01
2022-10-13T19:33:09.349Z,0.01
2022-10-13T19:37:10.081Z,0.01
2022-10-13T19:41:15.965Z,0.01
2022-10-13T19:45:08.994Z,0.01
2022-10-13T19:49:09.640Z,0.01
2022-10-13T19:53:09.605Z,0.01
2022-10-13T19:57:09.421Z,0.01
2022-10-13T20:01:12.797Z,0.01
2022-10-13T20:05:09.276Z,0.01
2022-10-13T20:09:09.602Z,0.01
2022-10-13T20:13:09.605Z,0.01
2022-10-13T20:17:09.397Z,0.01
2022-10-13T20:21:08.988Z,0.01
2022-10-13T20:25:08.915Z,0.01
2022-10-13T20:29:16.579Z,0.01
2022-10-13T20:33:09.508Z,0.01
2022-10-13T20:37:12.992Z,0.01
2022-10-13T20:41:09.570Z,0.01
2022-10-13T20:45:09.678Z,0.01
2022-10-13T20:49:39.235Z,0.01
2022-10-13T20:53:08.801Z,0.01
2022-10-13T20:57:09.599Z,0.01
2022-10-13T21:01:12.249Z,0.01
2022-10-13T21:05:09.319Z,0.01
2022-10-13T21:09:09.582Z,0.01
2022-10-13T21:13:09.604Z,0.01
2022-10-13T21:17:09.482Z,0.01
2022-10-13T21:21:08.985Z,0.01
2022-10-13T21:25:08.760Z,0.01
2022-10-13T21:29:10.063Z,0.01
2022-10-13T21:33:09.355Z,0.01
2022-10-13T21:37:09.516Z,0.01
2022-10-13T21:41:16.208Z,0.01
2022-10-13T21:45:09.161Z,0.01
2022-10-13T21:49:08.869Z,0.01
2022-10-13T21:53:09.226Z,0.01
2022-10-13T21:57:09.107Z,0.01
2022-10-13T22:01:19.415Z,0.01
2022-10-13T22:13:09.771Z,0.01
2022-10-13T22:15:09.467Z,0.01
2022-10-13T22:17:09.558Z,0.01
2022-10-13T22:19:09.004Z,0.01
2022-10-13T22:21:09.162Z,0.01
2022-10-13T22:23:15.741Z,0.01
2022-10-13T22:25:09.421Z,0.01
2022-10-13T22:27:09.514Z,0.01
2022-10-13T22:29:11.700Z,0.01
2022-10-13T22:31:09.414Z,0.01
2022-10-13T22:33:09.435Z,0.01
2022-10-13T22:35:09.355Z,0.01
2022-10-13T22:37:09.625Z,0.01
2022-10-13T22:39:08.815Z,0.01
2022-10-13T22:41:09.718Z,0.01
2022-10-13T22:43:09.533Z,0.01
2022-10-13T22:45:09.406Z,0.01
2022-10-13T22:47:09.788Z,0.01
2022-10-13T22:49:14.481Z,0.01
2022-10-13T22:51:10.857Z,0.01
2022-10-13T22:53:09.547Z,0.01
2022-10-13T22:55:09.163Z,0.01
2022-10-13T22:57:09.222Z,0.01
2022-10-13T22:59:09.502Z,0.01
2022-10-13T23:01:12.331Z,0.01
2022-10-13T23:03:09.152Z,0.01
2022-10-13T23:05:09.063Z,0.01
2022-10-13T23:07:09.676Z,0.01
2022-10-13T23:09:09.548Z,0.01
2022-10-13T23:11:08.883Z,0.01
2022-10-13T23:13:09.538Z,0.01
2022-10-13T23:15:09.383Z,0.01
2022-10-13T23:17:09.791Z,0.01
2022-10-13T23:19:09.058Z,0.01
2022-10-13T23:21:09.228Z,0.01
2022-10-13T23:23:08.760Z,0.01
2022-10-13T23:25:09.514Z,0.01
2022-10-13T23:27:09.287Z,0.01
2022-10-13T23:29:10.176Z,0.01
2022-10-13T23:31:09.286Z,0.01
2022-10-13T23:33:15.016Z,0.01
2022-10-13T23:35:08.834Z,0.01
2022-10-13T23:37:09.062Z,0.01
2022-10-13T23:39:09.275Z,0.01
2022-10-13T23:41:09.575Z,0.01
2022-10-13T23:43:09.716Z,0.01
2022-10-13T23:45:09.428Z,0.01
2022-10-13T23:47:08.705Z,0.01
2022-10-13T23:49:09.374Z,0.01
2022-10-13T23:51:08.939Z,0.01
2022-10-13T23:53:09.436Z,0.01
2022-10-13T23:55:09.566Z,0.01
2022-10-13T23:57:09.031Z,0.01
2022-10-13T23:59:09.406Z,0.01
